sensor_id;sensor_type;location;lat;lon;timestamp;temperature;humidity
19941;DHT22;10132;50.864;5.176;2023-02-28T00:00:18;0.40;99.90
19941;DHT22;10132;50.864;5.176;2023-02-28T00:02:20;0.40;99.90
19941;DHT22;10132;50.864;5.176;2023-02-28T00:04:22;0.30;99.90
19941;DHT22;10132;50.864;5.176;2023-02-28T00:06:24;0.30;99.90
19941;DHT22;10132;50.864;5.176;2023-02-28T00:08:26;0.30;99.90
19941;DHT22;10132;50.864;5.176;2023-02-28T00:10:30;0.30;99.90
19941;DHT22;10132;50.864;5.176;2023-02-28T00:12:34;0.20;99.90
19941;DHT22;10132;50.864;5.176;2023-02-28T00:14:36;0.20;99.90
19941;DHT22;10132;50.864;5.176;2023-02-28T00:16:38;0.30;99.90
19941;DHT22;10132;50.864;5.176;2023-02-28T00:18:41;0.30;99.90
19941;DHT22;10132;50.864;5.176;2023-02-28T00:20:43;0.30;99.90
19941;DHT22;10132;50.864;5.176;2023-02-28T00:22:46;0.30;99.90
19941;DHT22;10132;50.864;5.176;2023-02-28T00:24:48;0.20;99.90
19941;DHT22;10132;50.864;5.176;2023-02-28T00:26:50;0.20;99.90
19941;DHT22;10132;50.864;5.176;2023-02-28T00:28:54;0.30;99.90
19941;DHT22;10132;50.864;5.176;2023-02-28T00:30:56;0.30;99.90
19941;DHT22;10132;50.864;5.176;2023-02-28T00:32:58;0.20;99.90
19941;DHT22;10132;50.864;5.176;2023-02-28T00:35:00;0.20;99.90
19941;DHT22;10132;50.864;5.176;2023-02-28T00:37:02;0.20;99.90
19941;DHT22;10132;50.864;5.176;2023-02-28T00:39:04;0.20;99.90
19941;DHT22;10132;50.864;5.176;2023-02-28T00:41:06;0.20;99.90
19941;DHT22;10132;50.864;5.176;2023-02-28T00:43:08;0.10;99.90
19941;DHT22;10132;50.864;5.176;2023-02-28T00:45:12;0.10;99.90
19941;DHT22;10132;50.864;5.176;2023-02-28T00:47:14;0.00;99.90
19941;DHT22;10132;50.864;5.176;2023-02-28T00:49:16;0.00;99.90
19941;DHT22;10132;50.864;5.176;2023-02-28T00:51:18;0.00;99.90
19941;DHT22;10132;50.864;5.176;2023-02-28T00:53:20;0.00;99.90
19941;DHT22;10132;50.864;5.176;2023-02-28T00:55:23;0.00;99.90
19941;DHT22;10132;50.864;5.176;2023-02-28T00:57:25;0.00;99.90
19941;DHT22;10132;50.864;5.176;2023-02-28T00:59:27;-0.10;99.90
19941;DHT22;10132;50.864;5.176;2023-02-28T01:01:31;-0.10;99.90
19941;DHT22;10132;50.864;5.176;2023-02-28T01:03:33;-0.10;99.90
19941;DHT22;10132;50.864;5.176;2023-02-28T01:05:35;-0.10;99.90
19941;DHT22;10132;50.864;5.176;2023-02-28T01:07:37;-0.10;99.90
19941;DHT22;10132;50.864;5.176;2023-02-28T01:09:39;-0.10;99.90
19941;DHT22;10132;50.864;5.176;2023-02-28T01:11:41;-0.10;99.90
19941;DHT22;10132;50.864;5.176;2023-02-28T01:13:45;-0.10;99.90
19941;DHT22;10132;50.864;5.176;2023-02-28T01:15:51;-0.10;99.90
19941;DHT22;10132;50.864;5.176;2023-02-28T01:17:54;-0.10;99.90
19941;DHT22;10132;50.864;5.176;2023-02-28T01:19:56;-0.10;99.90
19941;DHT22;10132;50.864;5.176;2023-02-28T01:22:01;-0.10;99.90
19941;DHT22;10132;50.864;5.176;2023-02-28T01:24:04;-0.10;99.90
19941;DHT22;10132;50.864;5.176;2023-02-28T01:26:07;-0.10;99.90
19941;DHT22;10132;50.864;5.176;2023-02-28T01:28:09;-0.20;99.90
19941;DHT22;10132;50.864;5.176;2023-02-28T01:30:12;-0.20;99.90
19941;DHT22;10132;50.864;5.176;2023-02-28T01:32:15;-0.30;99.90
19941;DHT22;10132;50.864;5.176;2023-02-28T01:34:18;-0.20;99.90
19941;DHT22;10132;50.864;5.176;2023-02-28T01:36:23;-0.20;99.90
19941;DHT22;10132;50.864;5.176;2023-02-28T01:38:25;-0.20;99.90
19941;DHT22;10132;50.864;5.176;2023-02-28T01:40:27;-0.30;99.90
19941;DHT22;10132;50.864;5.176;2023-02-28T01:42:29;-0.20;99.90
19941;DHT22;10132;50.864;5.176;2023-02-28T01:45:08;-0.20;99.90
19941;DHT22;10132;50.864;5.176;2023-02-28T01:47:16;-0.20;99.90
19941;DHT22;10132;50.864;5.176;2023-02-28T01:49:19;-0.30;99.90
19941;DHT22;10132;50.864;5.176;2023-02-28T01:51:26;-0.30;99.90
19941;DHT22;10132;50.864;5.176;2023-02-28T01:53:33;-0.30;99.90
19941;DHT22;10132;50.864;5.176;2023-02-28T01:55:36;-0.40;99.90
19941;DHT22;10132;50.864;5.176;2023-02-28T01:57:42;-0.50;99.90
19941;DHT22;10132;50.864;5.176;2023-02-28T01:59:49;-0.50;99.90
19941;DHT22;10132;50.864;5.176;2023-02-28T02:01:54;-0.50;99.90
19941;DHT22;10132;50.864;5.176;2023-02-28T02:03:58;-0.40;99.90
19941;DHT22;10132;50.864;5.176;2023-02-28T02:06:02;-0.50;99.90
19941;DHT22;10132;50.864;5.176;2023-02-28T02:08:06;-0.50;99.90
19941;DHT22;10132;50.864;5.176;2023-02-28T02:12:25;-0.40;99.90
19941;DHT22;10132;50.864;5.176;2023-02-28T02:14:42;-0.40;99.90
19941;DHT22;10132;50.864;5.176;2023-02-28T02:17:05;-0.30;99.90
19941;DHT22;10132;50.864;5.176;2023-02-28T02:19:33;-0.30;99.90
19941;DHT22;10132;50.864;5.176;2023-02-28T02:22:05;-0.40;99.90
19941;DHT22;10132;50.864;5.176;2023-02-28T02:26:58;-0.50;99.90
19941;DHT22;10132;50.864;5.176;2023-02-28T02:29:31;-0.50;99.90
19941;DHT22;10132;50.864;5.176;2023-02-28T02:36:49;-0.60;99.90
19941;DHT22;10132;50.864;5.176;2023-02-28T02:38:57;-0.60;99.90
19941;DHT22;10132;50.864;5.176;2023-02-28T02:41:06;-0.70;99.90
19941;DHT22;10132;50.864;5.176;2023-02-28T02:43:15;-0.80;99.90
19941;DHT22;10132;50.864;5.176;2023-02-28T02:45:22;-0.70;99.90
19941;DHT22;10132;50.864;5.176;2023-02-28T02:47:30;-0.70;99.90
19941;DHT22;10132;50.864;5.176;2023-02-28T02:49:36;-0.70;99.90
19941;DHT22;10132;50.864;5.176;2023-02-28T02:51:39;-0.70;99.90
19941;DHT22;10132;50.864;5.176;2023-02-28T02:53:45;-0.80;99.90
19941;DHT22;10132;50.864;5.176;2023-02-28T02:55:52;-0.90;99.90
19941;DHT22;10132;50.864;5.176;2023-02-28T02:57:58;-0.90;99.90
19941;DHT22;10132;50.864;5.176;2023-02-28T03:00:04;-0.80;99.90
19941;DHT22;10132;50.864;5.176;2023-02-28T03:02:12;-0.80;99.90
19941;DHT22;10132;50.864;5.176;2023-02-28T03:04:18;-1.00;99.90
19941;DHT22;10132;50.864;5.176;2023-02-28T03:06:22;-1.00;99.90
19941;DHT22;10132;50.864;5.176;2023-02-28T03:08:25;-0.90;99.90
19941;DHT22;10132;50.864;5.176;2023-02-28T03:10:33;-0.90;99.90
19941;DHT22;10132;50.864;5.176;2023-02-28T03:12:53;-0.90;99.90
19941;DHT22;10132;50.864;5.176;2023-02-28T03:15:07;-0.90;99.90
19941;DHT22;10132;50.864;5.176;2023-02-28T03:17:35;-0.80;99.90
19941;DHT22;10132;50.864;5.176;2023-02-28T03:19:47;-0.80;99.90
19941;DHT22;10132;50.864;5.176;2023-02-28T03:22:06;-0.80;99.90
19941;DHT22;10132;50.864;5.176;2023-02-28T03:24:19;-0.80;99.90
19941;DHT22;10132;50.864;5.176;2023-02-28T03:26:25;-0.90;99.90
19941;DHT22;10132;50.864;5.176;2023-02-28T03:28:31;-1.10;99.90
19941;DHT22;10132;50.864;5.176;2023-02-28T03:30:45;-1.20;99.90
19941;DHT22;10132;50.864;5.176;2023-02-28T03:32:58;-1.20;99.90
19941;DHT22;10132;50.864;5.176;2023-02-28T03:35:09;-1.30;99.90
19941;DHT22;10132;50.864;5.176;2023-02-28T03:37:16;-1.30;99.90
19941;DHT22;10132;50.864;5.176;2023-02-28T03:39:23;-1.30;99.90
19941;DHT22;10132;50.864;5.176;2023-02-28T03:41:30;-1.20;99.90
19941;DHT22;10132;50.864;5.176;2023-02-28T03:43:35;-1.10;99.90
19941;DHT22;10132;50.864;5.176;2023-02-28T03:45:41;-1.00;99.90
19941;DHT22;10132;50.864;5.176;2023-02-28T03:47:48;-0.90;99.90
19941;DHT22;10132;50.864;5.176;2023-02-28T03:49:56;-0.90;99.90
19941;DHT22;10132;50.864;5.176;2023-02-28T03:52:02;-0.90;99.90
19941;DHT22;10132;50.864;5.176;2023-02-28T03:54:09;-0.70;99.90
19941;DHT22;10132;50.864;5.176;2023-02-28T03:56:16;-0.60;99.90
19941;DHT22;10132;50.864;5.176;2023-02-28T03:58:24;-0.70;99.90
19941;DHT22;10132;50.864;5.176;2023-02-28T04:00:33;-0.60;99.90
19941;DHT22;10132;50.864;5.176;2023-02-28T04:02:36;-0.50;99.90
19941;DHT22;10132;50.864;5.176;2023-02-28T04:04:38;-0.50;99.90
19941;DHT22;10132;50.864;5.176;2023-02-28T04:06:50;-0.50;99.90
19941;DHT22;10132;50.864;5.176;2023-02-28T04:08:52;-0.50;99.90
19941;DHT22;10132;50.864;5.176;2023-02-28T04:10:59;-0.50;99.90
19941;DHT22;10132;50.864;5.176;2023-02-28T04:13:03;-0.50;99.90
19941;DHT22;10132;50.864;5.176;2023-02-28T04:15:06;-0.50;99.90
19941;DHT22;10132;50.864;5.176;2023-02-28T04:17:08;-0.50;99.90
19941;DHT22;10132;50.864;5.176;2023-02-28T04:19:11;-0.40;99.90
19941;DHT22;10132;50.864;5.176;2023-02-28T04:21:13;-0.40;99.90
19941;DHT22;10132;50.864;5.176;2023-02-28T04:23:15;-0.40;99.90
19941;DHT22;10132;50.864;5.176;2023-02-28T04:25:17;-0.50;99.90
19941;DHT22;10132;50.864;5.176;2023-02-28T04:27:21;-0.60;99.90
19941;DHT22;10132;50.864;5.176;2023-02-28T04:29:26;-0.60;99.90
19941;DHT22;10132;50.864;5.176;2023-02-28T04:31:28;-0.60;99.90
19941;DHT22;10132;50.864;5.176;2023-02-28T04:33:31;-0.60;99.90
19941;DHT22;10132;50.864;5.176;2023-02-28T04:35:33;-0.70;99.90
19941;DHT22;10132;50.864;5.176;2023-02-28T04:37:35;-0.70;99.90
19941;DHT22;10132;50.864;5.176;2023-02-28T04:39:38;-0.70;99.90
19941;DHT22;10132;50.864;5.176;2023-02-28T04:41:40;-0.80;99.90
19941;DHT22;10132;50.864;5.176;2023-02-28T04:43:43;-0.80;99.90
19941;DHT22;10132;50.864;5.176;2023-02-28T04:45:45;-0.80;99.90
19941;DHT22;10132;50.864;5.176;2023-02-28T04:47:47;-0.90;99.90
19941;DHT22;10132;50.864;5.176;2023-02-28T04:49:49;-1.00;99.90
19941;DHT22;10132;50.864;5.176;2023-02-28T04:51:51;-1.10;99.90
19941;DHT22;10132;50.864;5.176;2023-02-28T04:53:53;-1.20;99.90
19941;DHT22;10132;50.864;5.176;2023-02-28T04:55:55;-1.30;99.90
19941;DHT22;10132;50.864;5.176;2023-02-28T04:57:58;-1.20;99.90
19941;DHT22;10132;50.864;5.176;2023-02-28T05:00:01;-1.20;99.90
19941;DHT22;10132;50.864;5.176;2023-02-28T05:02:05;-1.20;99.90
19941;DHT22;10132;50.864;5.176;2023-02-28T05:04:08;-1.30;99.90
19941;DHT22;10132;50.864;5.176;2023-02-28T05:06:12;-1.40;99.90
19941;DHT22;10132;50.864;5.176;2023-02-28T05:08:14;-1.40;99.90
19941;DHT22;10132;50.864;5.176;2023-02-28T05:10:16;-1.50;99.90
19941;DHT22;10132;50.864;5.176;2023-02-28T05:12:18;-1.40;99.90
19941;DHT22;10132;50.864;5.176;2023-02-28T05:14:22;-1.30;99.90
19941;DHT22;10132;50.864;5.176;2023-02-28T05:16:25;-1.30;99.90
19941;DHT22;10132;50.864;5.176;2023-02-28T05:18:27;-1.30;99.90
19941;DHT22;10132;50.864;5.176;2023-02-28T05:20:29;-1.60;99.90
19941;DHT22;10132;50.864;5.176;2023-02-28T05:22:31;-1.60;99.90
19941;DHT22;10132;50.864;5.176;2023-02-28T05:24:33;-1.70;99.90
19941;DHT22;10132;50.864;5.176;2023-02-28T05:26:36;-1.80;99.90
19941;DHT22;10132;50.864;5.176;2023-02-28T05:28:39;-1.90;99.90
19941;DHT22;10132;50.864;5.176;2023-02-28T05:30:41;-1.90;99.90
19941;DHT22;10132;50.864;5.176;2023-02-28T05:32:48;-1.80;99.90
19941;DHT22;10132;50.864;5.176;2023-02-28T05:34:51;-1.70;99.90
19941;DHT22;10132;50.864;5.176;2023-02-28T05:36:53;-1.60;99.90
19941;DHT22;10132;50.864;5.176;2023-02-28T05:38:55;-1.50;99.90
19941;DHT22;10132;50.864;5.176;2023-02-28T05:40:57;-1.40;99.90
19941;DHT22;10132;50.864;5.176;2023-02-28T05:42:59;-1.40;99.90
19941;DHT22;10132;50.864;5.176;2023-02-28T05:45:01;-1.40;99.90
19941;DHT22;10132;50.864;5.176;2023-02-28T05:47:03;-1.50;99.90
19941;DHT22;10132;50.864;5.176;2023-02-28T05:49:06;-1.70;99.90
19941;DHT22;10132;50.864;5.176;2023-02-28T05:51:09;-1.80;99.90
19941;DHT22;10132;50.864;5.176;2023-02-28T05:53:11;-1.70;99.90
19941;DHT22;10132;50.864;5.176;2023-02-28T05:55:13;-1.60;99.90
19941;DHT22;10132;50.864;5.176;2023-02-28T05:57:15;-1.60;99.90
19941;DHT22;10132;50.864;5.176;2023-02-28T05:59:17;-1.70;99.90
19941;DHT22;10132;50.864;5.176;2023-02-28T06:01:25;-1.90;99.90
19941;DHT22;10132;50.864;5.176;2023-02-28T06:03:32;-2.00;99.90
19941;DHT22;10132;50.864;5.176;2023-02-28T06:05:35;-2.10;99.90
19941;DHT22;10132;50.864;5.176;2023-02-28T06:07:39;-2.00;99.90
19941;DHT22;10132;50.864;5.176;2023-02-28T06:09:41;-1.90;99.90
19941;DHT22;10132;50.864;5.176;2023-02-28T06:11:43;-1.80;99.90
19941;DHT22;10132;50.864;5.176;2023-02-28T06:13:45;-1.90;99.90
19941;DHT22;10132;50.864;5.176;2023-02-28T06:15:47;-1.90;99.90
19941;DHT22;10132;50.864;5.176;2023-02-28T06:17:49;-2.00;99.90
19941;DHT22;10132;50.864;5.176;2023-02-28T06:19:51;-1.90;99.90
19941;DHT22;10132;50.864;5.176;2023-02-28T06:21:56;-1.90;99.90
19941;DHT22;10132;50.864;5.176;2023-02-28T06:23:58;-1.80;99.90
19941;DHT22;10132;50.864;5.176;2023-02-28T06:26:00;-1.80;99.90
19941;DHT22;10132;50.864;5.176;2023-02-28T06:28:02;-1.90;99.90
19941;DHT22;10132;50.864;5.176;2023-02-28T06:30:05;-2.00;99.90
19941;DHT22;10132;50.864;5.176;2023-02-28T06:32:08;-2.00;99.90
19941;DHT22;10132;50.864;5.176;2023-02-28T06:34:10;-1.90;99.90
19941;DHT22;10132;50.864;5.176;2023-02-28T06:36:13;-1.90;99.90
19941;DHT22;10132;50.864;5.176;2023-02-28T06:38:17;-1.90;99.90
19941;DHT22;10132;50.864;5.176;2023-02-28T06:40:19;-2.00;99.90
19941;DHT22;10132;50.864;5.176;2023-02-28T06:42:21;-2.00;99.90
19941;DHT22;10132;50.864;5.176;2023-02-28T06:44:25;-2.00;99.90
19941;DHT22;10132;50.864;5.176;2023-02-28T06:46:27;-2.00;99.90
19941;DHT22;10132;50.864;5.176;2023-02-28T06:48:29;-2.00;99.90
19941;DHT22;10132;50.864;5.176;2023-02-28T06:50:31;-1.80;99.90
19941;DHT22;10132;50.864;5.176;2023-02-28T06:52:33;-1.70;99.90
19941;DHT22;10132;50.864;5.176;2023-02-28T06:54:39;-1.70;99.90
19941;DHT22;10132;50.864;5.176;2023-02-28T06:56:41;-1.60;99.90
19941;DHT22;10132;50.864;5.176;2023-02-28T06:58:46;-1.50;99.90
19941;DHT22;10132;50.864;5.176;2023-02-28T07:00:51;-1.30;99.90
19941;DHT22;10132;50.864;5.176;2023-02-28T07:02:53;-1.20;99.90
19941;DHT22;10132;50.864;5.176;2023-02-28T07:04:56;-1.10;99.90
19941;DHT22;10132;50.864;5.176;2023-02-28T07:06:58;-1.00;99.90
19941;DHT22;10132;50.864;5.176;2023-02-28T07:09:00;-0.90;99.90
19941;DHT22;10132;50.864;5.176;2023-02-28T07:11:03;-0.90;99.90
19941;DHT22;10132;50.864;5.176;2023-02-28T07:13:07;-0.80;99.90
19941;DHT22;10132;50.864;5.176;2023-02-28T07:15:10;-0.70;99.90
19941;DHT22;10132;50.864;5.176;2023-02-28T07:17:12;-0.60;99.90
19941;DHT22;10132;50.864;5.176;2023-02-28T07:19:14;-0.40;99.90
19941;DHT22;10132;50.864;5.176;2023-02-28T07:21:16;-0.40;99.90
19941;DHT22;10132;50.864;5.176;2023-02-28T07:23:18;-0.30;99.90
19941;DHT22;10132;50.864;5.176;2023-02-28T07:25:20;-0.20;99.90
19941;DHT22;10132;50.864;5.176;2023-02-28T07:27:23;-0.10;99.90
19941;DHT22;10132;50.864;5.176;2023-02-28T07:29:26;0.00;99.90
19941;DHT22;10132;50.864;5.176;2023-02-28T07:31:28;0.10;99.90
19941;DHT22;10132;50.864;5.176;2023-02-28T07:33:30;0.30;99.90
19941;DHT22;10132;50.864;5.176;2023-02-28T07:35:32;0.40;99.90
19941;DHT22;10132;50.864;5.176;2023-02-28T07:37:34;0.50;99.90
19941;DHT22;10132;50.864;5.176;2023-02-28T07:39:37;0.60;99.90
19941;DHT22;10132;50.864;5.176;2023-02-28T07:41:39;0.70;99.90
19941;DHT22;10132;50.864;5.176;2023-02-28T07:43:45;0.90;99.90
19941;DHT22;10132;50.864;5.176;2023-02-28T07:45:47;1.00;99.90
19941;DHT22;10132;50.864;5.176;2023-02-28T07:47:49;1.10;99.90
19941;DHT22;10132;50.864;5.176;2023-02-28T07:49:51;1.10;99.90
19941;DHT22;10132;50.864;5.176;2023-02-28T07:51:53;1.20;99.90
19941;DHT22;10132;50.864;5.176;2023-02-28T07:53:56;1.30;99.90
19941;DHT22;10132;50.864;5.176;2023-02-28T07:55:58;1.30;99.90
19941;DHT22;10132;50.864;5.176;2023-02-28T07:58:01;1.40;99.90
19941;DHT22;10132;50.864;5.176;2023-02-28T08:00:07;1.60;99.90
19941;DHT22;10132;50.864;5.176;2023-02-28T08:02:13;1.70;99.90
19941;DHT22;10132;50.864;5.176;2023-02-28T08:04:15;1.90;99.90
19941;DHT22;10132;50.864;5.176;2023-02-28T08:06:19;1.90;99.90
19941;DHT22;10132;50.864;5.176;2023-02-28T08:08:21;1.90;99.90
19941;DHT22;10132;50.864;5.176;2023-02-28T08:10:24;1.90;99.90
19941;DHT22;10132;50.864;5.176;2023-02-28T08:12:26;1.90;99.90
19941;DHT22;10132;50.864;5.176;2023-02-28T08:14:28;1.90;99.90
19941;DHT22;10132;50.864;5.176;2023-02-28T08:16:31;2.00;99.90
19941;DHT22;10132;50.864;5.176;2023-02-28T08:18:34;2.10;99.90
19941;DHT22;10132;50.864;5.176;2023-02-28T08:20:36;2.20;99.90
19941;DHT22;10132;50.864;5.176;2023-02-28T08:22:38;2.40;99.90
19941;DHT22;10132;50.864;5.176;2023-02-28T08:24:41;2.50;99.90
19941;DHT22;10132;50.864;5.176;2023-02-28T08:26:44;2.50;99.90
19941;DHT22;10132;50.864;5.176;2023-02-28T08:28:46;2.60;99.90
19941;DHT22;10132;50.864;5.176;2023-02-28T08:30:48;2.70;99.90
19941;DHT22;10132;50.864;5.176;2023-02-28T08:32:52;2.80;99.90
19941;DHT22;10132;50.864;5.176;2023-02-28T08:34:53;3.00;99.90
19941;DHT22;10132;50.864;5.176;2023-02-28T08:36:55;3.00;99.90
19941;DHT22;10132;50.864;5.176;2023-02-28T08:38:57;3.00;99.90
19941;DHT22;10132;50.864;5.176;2023-02-28T08:41:01;3.00;99.90
19941;DHT22;10132;50.864;5.176;2023-02-28T08:43:03;3.10;99.90
19941;DHT22;10132;50.864;5.176;2023-02-28T08:45:06;3.10;99.90
19941;DHT22;10132;50.864;5.176;2023-02-28T08:47:08;3.30;99.90
19941;DHT22;10132;50.864;5.176;2023-02-28T08:49:11;3.80;99.90
19941;DHT22;10132;50.864;5.176;2023-02-28T08:51:15;4.00;99.90
19941;DHT22;10132;50.864;5.176;2023-02-28T08:53:19;3.90;99.90
19941;DHT22;10132;50.864;5.176;2023-02-28T08:55:21;3.70;99.90
19941;DHT22;10132;50.864;5.176;2023-02-28T08:57:23;3.60;99.90
19941;DHT22;10132;50.864;5.176;2023-02-28T08:59:27;3.50;99.90
19941;DHT22;10132;50.864;5.176;2023-02-28T09:01:30;3.60;99.90
19941;DHT22;10132;50.864;5.176;2023-02-28T09:03:32;3.60;99.90
19941;DHT22;10132;50.864;5.176;2023-02-28T09:05:35;3.80;99.90
19941;DHT22;10132;50.864;5.176;2023-02-28T09:07:37;3.90;99.90
19941;DHT22;10132;50.864;5.176;2023-02-28T09:09:39;3.90;99.90
19941;DHT22;10132;50.864;5.176;2023-02-28T09:11:55;3.80;99.90
19941;DHT22;10132;50.864;5.176;2023-02-28T09:13:58;4.00;99.90
19941;DHT22;10132;50.864;5.176;2023-02-28T09:16:01;4.10;99.90
19941;DHT22;10132;50.864;5.176;2023-02-28T09:18:04;4.20;99.90
19941;DHT22;10132;50.864;5.176;2023-02-28T09:20:07;4.60;99.90
19941;DHT22;10132;50.864;5.176;2023-02-28T09:22:11;4.50;99.90
19941;DHT22;10132;50.864;5.176;2023-02-28T09:24:13;4.70;99.90
19941;DHT22;10132;50.864;5.176;2023-02-28T09:26:17;4.90;99.90
19941;DHT22;10132;50.864;5.176;2023-02-28T09:28:20;4.90;99.90
19941;DHT22;10132;50.864;5.176;2023-02-28T09:30:22;5.10;99.90
19941;DHT22;10132;50.864;5.176;2023-02-28T09:32:24;5.30;99.90
19941;DHT22;10132;50.864;5.176;2023-02-28T09:34:27;5.70;99.90
19941;DHT22;10132;50.864;5.176;2023-02-28T09:36:31;5.90;99.90
19941;DHT22;10132;50.864;5.176;2023-02-28T09:38:35;6.10;99.90
19941;DHT22;10132;50.864;5.176;2023-02-28T09:40:39;6.00;99.90
19941;DHT22;10132;50.864;5.176;2023-02-28T09:42:45;6.30;99.90
19941;DHT22;10132;50.864;5.176;2023-02-28T09:44:50;6.20;99.90
19941;DHT22;10132;50.864;5.176;2023-02-28T09:46:57;6.20;99.90
19941;DHT22;10132;50.864;5.176;2023-02-28T09:49:04;6.30;99.90
19941;DHT22;10132;50.864;5.176;2023-02-28T09:51:14;6.60;99.90
19941;DHT22;10132;50.864;5.176;2023-02-28T09:53:22;6.40;99.90
19941;DHT22;10132;50.864;5.176;2023-02-28T09:55:33;6.50;99.90
19941;DHT22;10132;50.864;5.176;2023-02-28T09:57:40;6.50;99.90
19941;DHT22;10132;50.864;5.176;2023-02-28T09:59:50;6.90;99.90
19941;DHT22;10132;50.864;5.176;2023-02-28T10:01:59;6.90;99.90
19941;DHT22;10132;50.864;5.176;2023-02-28T10:04:08;6.90;99.90
19941;DHT22;10132;50.864;5.176;2023-02-28T10:06:17;7.10;99.90
19941;DHT22;10132;50.864;5.176;2023-02-28T10:08:25;7.10;99.90
19941;DHT22;10132;50.864;5.176;2023-02-28T10:10:32;7.30;99.90
19941;DHT22;10132;50.864;5.176;2023-02-28T10:12:37;7.60;99.90
19941;DHT22;10132;50.864;5.176;2023-02-28T10:14:44;7.30;99.90
19941;DHT22;10132;50.864;5.176;2023-02-28T10:16:50;7.20;99.90
19941;DHT22;10132;50.864;5.176;2023-02-28T10:18:59;7.40;99.90
19941;DHT22;10132;50.864;5.176;2023-02-28T10:21:03;7.40;99.90
19941;DHT22;10132;50.864;5.176;2023-02-28T10:23:11;7.40;99.90
19941;DHT22;10132;50.864;5.176;2023-02-28T10:25:18;7.60;99.90
19941;DHT22;10132;50.864;5.176;2023-02-28T10:27:25;7.50;99.90
19941;DHT22;10132;50.864;5.176;2023-02-28T10:29:28;7.40;99.90
19941;DHT22;10132;50.864;5.176;2023-02-28T10:31:33;7.60;99.90
19941;DHT22;10132;50.864;5.176;2023-02-28T10:33:35;7.70;99.90
19941;DHT22;10132;50.864;5.176;2023-02-28T10:35:37;7.90;99.90
19941;DHT22;10132;50.864;5.176;2023-02-28T10:37:41;7.90;99.90
19941;DHT22;10132;50.864;5.176;2023-02-28T10:39:44;7.90;99.90
19941;DHT22;10132;50.864;5.176;2023-02-28T10:41:47;8.30;99.90
19941;DHT22;10132;50.864;5.176;2023-02-28T10:43:50;8.40;99.90
19941;DHT22;10132;50.864;5.176;2023-02-28T10:46:01;8.20;99.90
19941;DHT22;10132;50.864;5.176;2023-02-28T10:48:05;8.20;99.90
19941;DHT22;10132;50.864;5.176;2023-02-28T10:50:27;8.40;99.90
19941;DHT22;10132;50.864;5.176;2023-02-28T10:52:33;8.10;99.90
19941;DHT22;10132;50.864;5.176;2023-02-28T10:54:37;7.80;99.90
19941;DHT22;10132;50.864;5.176;2023-02-28T10:56:39;7.30;99.90
19941;DHT22;10132;50.864;5.176;2023-02-28T10:58:56;7.70;99.90
19941;DHT22;10132;50.864;5.176;2023-02-28T11:00:59;8.10;99.90
19941;DHT22;10132;50.864;5.176;2023-02-28T11:03:01;8.50;99.90
19941;DHT22;10132;50.864;5.176;2023-02-28T11:05:23;9.00;99.90
19941;DHT22;10132;50.864;5.176;2023-02-28T11:07:26;8.50;99.90
19941;DHT22;10132;50.864;5.176;2023-02-28T11:09:33;8.00;99.90
19941;DHT22;10132;50.864;5.176;2023-02-28T11:11:43;7.20;99.90
19941;DHT22;10132;50.864;5.176;2023-02-28T11:13:47;6.80;99.90
19941;DHT22;10132;50.864;5.176;2023-02-28T11:15:54;6.90;99.90
19941;DHT22;10132;50.864;5.176;2023-02-28T11:17:58;7.50;99.90
19941;DHT22;10132;50.864;5.176;2023-02-28T11:20:03;8.00;99.90
19941;DHT22;10132;50.864;5.176;2023-02-28T11:22:07;8.00;99.90
19941;DHT22;10132;50.864;5.176;2023-02-28T11:24:19;8.30;99.90
19941;DHT22;10132;50.864;5.176;2023-02-28T11:26:41;8.70;99.90
19941;DHT22;10132;50.864;5.176;2023-02-28T11:28:44;9.10;99.90
19941;DHT22;10132;50.864;5.176;2023-02-28T11:30:46;9.00;99.90
19941;DHT22;10132;50.864;5.176;2023-02-28T11:33:27;8.90;99.90
19941;DHT22;10132;50.864;5.176;2023-02-28T11:35:31;8.70;99.90
19941;DHT22;10132;50.864;5.176;2023-02-28T11:37:36;8.80;99.90
19941;DHT22;10132;50.864;5.176;2023-02-28T11:39:38;8.40;99.90
19941;DHT22;10132;50.864;5.176;2023-02-28T11:41:53;8.00;99.90
19941;DHT22;10132;50.864;5.176;2023-02-28T11:44:14;7.60;99.90
19941;DHT22;10132;50.864;5.176;2023-02-28T11:46:26;7.50;99.90
19941;DHT22;10132;50.864;5.176;2023-02-28T11:48:40;7.40;99.90
19941;DHT22;10132;50.864;5.176;2023-02-28T11:50:52;7.30;99.90
19941;DHT22;10132;50.864;5.176;2023-02-28T11:52:59;7.20;99.90
19941;DHT22;10132;50.864;5.176;2023-02-28T11:55:11;7.30;99.90
19941;DHT22;10132;50.864;5.176;2023-02-28T11:57:30;7.60;99.90
19941;DHT22;10132;50.864;5.176;2023-02-28T11:59:42;8.00;99.90
19941;DHT22;10132;50.864;5.176;2023-02-28T12:04:24;7.90;99.90
19941;DHT22;10132;50.864;5.176;2023-02-28T12:06:32;7.80;99.90
19941;DHT22;10132;50.864;5.176;2023-02-28T12:08:44;8.40;99.90
19941;DHT22;10132;50.864;5.176;2023-02-28T12:11:00;8.90;99.90
19941;DHT22;10132;50.864;5.176;2023-02-28T12:13:16;9.00;99.90
19941;DHT22;10132;50.864;5.176;2023-02-28T12:15:30;9.30;99.90
19941;DHT22;10132;50.864;5.176;2023-02-28T12:17:46;9.30;99.90
19941;DHT22;10132;50.864;5.176;2023-02-28T12:20:00;9.20;99.90
19941;DHT22;10132;50.864;5.176;2023-02-28T12:22:39;8.90;99.90
19941;DHT22;10132;50.864;5.176;2023-02-28T12:25:00;8.80;99.90
19941;DHT22;10132;50.864;5.176;2023-02-28T12:27:07;9.00;99.90
19941;DHT22;10132;50.864;5.176;2023-02-28T12:29:14;9.30;99.90
19941;DHT22;10132;50.864;5.176;2023-02-28T12:31:21;9.40;99.90
19941;DHT22;10132;50.864;5.176;2023-02-28T12:33:28;9.40;99.90
19941;DHT22;10132;50.864;5.176;2023-02-28T12:35:37;9.20;99.80
19941;DHT22;10132;50.864;5.176;2023-02-28T12:37:43;9.30;99.90
19941;DHT22;10132;50.864;5.176;2023-02-28T12:39:50;9.60;99.90
19941;DHT22;10132;50.864;5.176;2023-02-28T12:41:56;9.70;99.90
19941;DHT22;10132;50.864;5.176;2023-02-28T12:44:03;9.60;99.90
19941;DHT22;10132;50.864;5.176;2023-02-28T12:46:10;9.30;99.90
19941;DHT22;10132;50.864;5.176;2023-02-28T12:48:16;9.30;99.90
19941;DHT22;10132;50.864;5.176;2023-02-28T12:50:21;9.30;99.90
19941;DHT22;10132;50.864;5.176;2023-02-28T12:52:28;9.00;99.90
19941;DHT22;10132;50.864;5.176;2023-02-28T12:54:37;8.90;99.90
19941;DHT22;10132;50.864;5.176;2023-02-28T12:56:49;8.90;99.90
19941;DHT22;10132;50.864;5.176;2023-02-28T12:58:58;9.10;99.90
19941;DHT22;10132;50.864;5.176;2023-02-28T13:01:36;9.20;99.90
19941;DHT22;10132;50.864;5.176;2023-02-28T13:06:42;9.80;99.50
19941;DHT22;10132;50.864;5.176;2023-02-28T13:09:10;9.80;99.20
19941;DHT22;10132;50.864;5.176;2023-02-28T13:11:24;9.50;98.40
19941;DHT22;10132;50.864;5.176;2023-02-28T13:13:28;9.60;99.40
19941;DHT22;10132;50.864;5.176;2023-02-28T13:15:31;9.70;99.90
19941;DHT22;10132;50.864;5.176;2023-02-28T13:17:39;9.50;97.70
19941;DHT22;10132;50.864;5.176;2023-02-28T13:19:45;9.30;99.90
19941;DHT22;10132;50.864;5.176;2023-02-28T13:21:49;9.40;98.30
19941;DHT22;10132;50.864;5.176;2023-02-28T13:24:02;9.40;99.30
19941;DHT22;10132;50.864;5.176;2023-02-28T13:26:06;9.60;99.90
19941;DHT22;10132;50.864;5.176;2023-02-28T13:28:11;9.70;98.30
19941;DHT22;10132;50.864;5.176;2023-02-28T13:33:24;9.90;99.50
19941;DHT22;10132;50.864;5.176;2023-02-28T13:35:38;10.20;98.60
19941;DHT22;10132;50.864;5.176;2023-02-28T13:37:45;10.10;97.80